Time;durP1;ratioP1;P1;durP2;ratioP2;P2;SDS_P1;SDS_P2;PMS_P1;PMS_P2;Temp;Humidity;BMP_temperature;BMP_pressure;BME280_temperature;BME280_humidity;BME280_pressure;Samples;Min_cycle;Max_cycle;Signal;HPM_P1;HPM_P2
2022/10/06 00:01:21;;;;;;;0.40;0.27;;;;;;;13.48;61.40;96551.28;5133466;27;20435;-52
2022/10/06 00:03:49;;;;;;;0.50;0.30;;;;;;;13.36;61.98;96554.13;5133025;27;20924;-53
2022/10/06 00:06:17;;;;;;;0.40;0.20;;;;;;;13.46;61.38;96549.94;5133244;27;20840;-53
2022/10/06 00:08:47;;;;;;;0.40;0.20;;;;;;;13.50;61.49;96546.50;5133296;27;20433;-53
2022/10/06 00:11:17;;;;;;;0.40;0.20;;;;;;;13.41;61.61;96548.03;5133030;27;20436;-53
2022/10/06 00:13:45;;;;;;;0.40;0.20;;;;;;;13.21;62.20;96545.22;5133244;27;20944;-53
2022/10/06 00:16:16;;;;;;;0.40;0.30;;;;;;;13.06;62.97;96545.06;5132979;27;21029;-53
2022/10/06 00:18:45;;;;;;;0.40;0.30;;;;;;;12.98;63.08;96540.25;5133007;27;20430;-53
2022/10/06 00:21:13;;;;;;;0.40;0.30;;;;;;;13.03;62.87;96538.41;5132745;27;20430;-53
2022/10/06 00:23:41;;;;;;;0.40;0.20;;;;;;;13.23;62.61;96537.81;5132870;27;20984;-53
2022/10/06 00:26:15;;;;;;;0.43;0.30;;;;;;;13.32;62.06;96533.59;5132957;27;20487;-53
2022/10/06 00:28:46;;;;;;;0.60;0.30;;;;;;;12.78;62.31;96437.09;5133092;27;20437;-53
2022/10/06 00:31:15;;;;;;;0.40;0.30;;;;;;;13.41;61.54;96532.03;5132830;27;20516;-53
2022/10/06 00:33:43;;;;;;;0.50;0.40;;;;;;;13.30;61.09;96509.09;5132738;27;20444;-52
2022/10/06 00:36:12;;;;;;;0.40;0.20;;;;;;;13.33;61.71;96524.56;5133025;27;20436;-53
2022/10/06 00:38:40;;;;;;;0.40;0.20;;;;;;;13.13;62.68;96529.75;5132639;27;20433;-52
2022/10/06 00:41:12;;;;;;;0.40;0.20;;;;;;;13.03;62.28;96509.13;5132696;27;20426;-53
2022/10/06 00:43:47;;;;;;;0.40;0.30;;;;;;;13.13;62.83;96519.09;5132636;27;20516;-53
2022/10/06 00:46:21;;;;;;;0.40;0.20;;;;;;;12.61;64.37;96526.88;5132895;27;20987;-53
2022/10/06 00:48:55;;;;;;;0.40;0.20;;;;;;;12.91;63.43;96526.31;5132674;27;20456;-53
2022/10/06 00:51:24;;;;;;;0.40;0.20;;;;;;;12.93;63.29;96517.03;5132863;27;20424;-53
2022/10/06 00:53:52;;;;;;;0.40;0.20;;;;;;;12.37;65.04;96515.72;5132801;27;20441;-53
2022/10/06 00:56:22;;;;;;;0.50;0.37;;;;;;;12.28;65.09;96516.44;5132897;27;20925;-52
2022/10/06 00:58:50;;;;;;;0.43;0.30;;;;;;;12.67;63.63;96515.22;5132790;27;20434;-52
2022/10/06 01:01:19;;;;;;;0.40;0.20;;;;;;;12.76;62.98;96495.09;5132835;27;20430;-52
2022/10/06 01:03:50;;;;;;;0.50;0.30;;;;;;;12.50;62.93;96456.03;5132716;27;20505;-52
2022/10/06 01:06:19;;;;;;;0.50;0.30;;;;;;;13.01;62.53;96511.25;5132362;27;20482;-52
2022/10/06 01:08:47;;;;;;;0.40;0.23;;;;;;;12.49;64.34;96513.75;5132340;27;20444;-52
2022/10/06 01:11:16;;;;;;;0.40;0.30;;;;;;;12.22;65.69;96501.50;5135534;27;20442;-52
2022/10/06 01:13:46;;;;;;;0.70;0.40;;;;;;;12.45;64.47;96498.53;5136619;27;20437;-53
2022/10/06 01:16:19;;;;;;;0.40;0.30;;;;;;;12.13;65.92;96498.47;5136247;27;20440;-53
2022/10/06 01:18:48;;;;;;;0.50;0.40;;;;;;;12.42;65.39;96497.16;5136141;27;20506;-53
2022/10/06 01:21:25;;;;;;;0.40;0.20;;;;;;;12.72;64.70;96497.44;5136310;27;20437;-53
2022/10/06 01:23:56;;;;;;;0.50;0.40;;;;;;;12.82;64.19;96494.09;5135937;27;20500;-53
2022/10/06 01:26:25;;;;;;;0.40;0.20;;;;;;;11.95;65.54;96491.66;5136178;27;20487;-53
2022/10/06 01:28:54;;;;;;;0.40;0.30;;;;;;;12.04;66.13;96497.34;5136019;27;20425;-53
2022/10/06 01:31:23;;;;;;;0.40;0.20;;;;;;;12.40;64.69;96491.31;5136248;27;20434;-53
2022/10/06 01:33:52;;;;;;;0.40;0.20;;;;;;;12.63;63.81;96506.94;5135806;27;20494;-53
2022/10/06 01:36:20;;;;;;;0.40;0.20;;;;;;;12.63;63.68;96492.84;5136006;27;20434;-53
2022/10/06 01:38:48;;;;;;;0.40;0.20;;;;;;;12.65;63.65;96499.50;5135735;27;20437;-53
2022/10/06 01:41:18;;;;;;;0.40;0.20;;;;;;;12.56;64.13;96498.38;5135654;27;20429;-53
2022/10/06 01:43:46;;;;;;;0.53;0.30;;;;;;;12.37;64.69;96491.03;5135657;27;20439;-52
2022/10/06 01:46:15;;;;;;;0.40;0.20;;;;;;;12.36;64.70;96484.09;5135528;27;20480;-52
2022/10/06 01:48:43;;;;;;;0.40;0.30;;;;;;;12.20;65.57;96483.13;5135669;27;20432;-53
2022/10/06 01:51:14;;;;;;;0.40;0.30;;;;;;;11.43;65.62;96402.84;5135906;27;20443;-53
2022/10/06 01:53:43;;;;;;;0.40;0.30;;;;;;;11.95;66.66;96491.66;5135696;27;20429;-53
2022/10/06 01:56:12;;;;;;;0.40;0.20;;;;;;;11.09;68.49;96484.41;5135361;27;20469;-53
2022/10/06 01:58:42;;;;;;;0.50;0.30;;;;;;;11.47;68.28;96473.78;5135685;27;20425;-53
2022/10/06 02:01:10;;;;;;;0.40;0.20;;;;;;;11.83;67.16;96476.88;5135324;27;20912;-53
2022/10/06 02:03:40;;;;;;;0.40;0.20;;;;;;;12.24;65.98;96476.28;5135437;27;20426;-53
2022/10/06 02:06:08;;;;;;;0.40;0.20;;;;;;;12.29;65.13;96475.53;5135120;27;20476;-53
2022/10/06 02:08:37;;;;;;;0.40;0.20;;;;;;;12.19;64.82;96480.75;5135576;27;20458;-53
2022/10/06 02:11:08;;;;;;;0.40;0.20;;;;;;;12.25;65.88;96487.69;5135471;27;20426;-53
2022/10/06 02:13:37;;;;;;;0.40;0.20;;;;;;;12.36;64.46;96489.41;5135217;27;20426;-53
2022/10/06 02:16:08;;;;;;;0.40;0.20;;;;;;;12.43;64.60;96477.50;5134998;27;20432;-54
2022/10/06 02:18:36;;;;;;;0.40;0.23;;;;;;;12.14;65.20;96475.38;5135443;27;20545;-54
2022/10/06 02:21:05;;;;;;;0.40;0.20;;;;;;;12.29;64.12;96470.19;5134959;27;20426;-54
2022/10/06 02:23:34;;;;;;;0.40;0.20;;;;;;;12.16;65.20;96487.34;5134662;27;20473;-54
2022/10/06 02:26:04;;;;;;;0.40;0.30;;;;;;;11.57;66.79;96488.22;5134706;27;20433;-54
2022/10/06 02:28:33;;;;;;;0.40;0.20;;;;;;;11.77;66.43;96483.19;5134916;27;20916;-54
2022/10/06 02:31:02;;;;;;;0.40;0.40;;;;;;;12.29;64.80;96479.00;5134716;27;20433;-54
2022/10/06 02:33:32;;;;;;;0.40;0.20;;;;;;;12.19;64.82;96481.53;5134768;27;20433;-54
2022/10/06 02:36:00;;;;;;;0.40;0.20;;;;;;;11.72;66.48;96488.44;5134625;27;20440;-55
2022/10/06 02:38:31;;;;;;;0.40;0.30;;;;;;;11.62;66.51;96459.06;5134868;27;20949;-53
2022/10/06 02:41:00;;;;;;;0.40;0.20;;;;;;;11.67;67.53;96477.72;5134526;27;20437;-53
2022/10/06 02:43:30;;;;;;;0.30;0.20;;;;;;;11.57;67.02;96470.44;5134517;27;20437;-53
2022/10/06 02:46:00;;;;;;;0.40;0.20;;;;;;;10.75;68.12;96398.75;5134066;27;20429;-53
2022/10/06 02:48:30;;;;;;;0.40;0.30;;;;;;;11.58;67.56;96473.91;5134140;27;20427;-53
2022/10/06 02:51:01;;;;;;;0.40;0.20;;;;;;;11.59;67.48;96476.28;5134546;27;20490;-53
2022/10/06 02:53:30;;;;;;;0.40;0.30;;;;;;;11.59;66.58;96471.00;5134174;27;20417;-53
2022/10/06 02:55:59;;;;;;;0.40;0.30;;;;;;;11.61;66.30;96471.56;5134498;27;20816;-53
2022/10/06 02:58:29;;;;;;;0.40;0.30;;;;;;;11.72;65.98;96480.47;5134237;27;20505;-53
2022/10/06 03:01:02;;;;;;;0.40;0.30;;;;;;;11.78;65.72;96490.91;5134052;27;20440;-54
2022/10/06 03:03:33;;;;;;;0.40;0.20;;;;;;;12.00;65.11;96488.22;5134274;27;20428;-53
2022/10/06 03:06:04;;;;;;;0.40;0.20;;;;;;;11.79;65.72;96486.41;5134062;27;20431;-53
2022/10/06 03:08:33;;;;;;;0.50;0.30;;;;;;;11.46;66.93;96497.91;5133811;27;20481;-53
2022/10/06 03:11:02;;;;;;;0.40;0.20;;;;;;;11.33;67.86;96487.66;5133942;27;21030;-53
2022/10/06 03:13:31;;;;;;;0.40;0.27;;;;;;;10.93;69.14;96479.91;5133889;27;20427;-53
2022/10/06 03:15:59;;;;;;;0.40;0.20;;;;;;;10.66;70.83;96495.66;5133827;27;20440;-53
2022/10/06 03:18:28;;;;;;;0.40;0.20;;;;;;;10.72;70.82;96491.25;5133705;27;20480;-53
2022/10/06 03:21:01;;;;;;;0.40;0.20;;;;;;;10.51;72.46;96495.41;5134128;27;20432;-53
2022/10/06 03:23:30;;;;;;;0.40;0.30;;;;;;;9.85;75.58;96496.03;5133696;27;20462;-53
2022/10/06 03:25:58;;;;;;;0.40;0.20;;;;;;;9.89;77.14;96493.75;5133562;27;20961;-53
2022/10/06 03:28:26;;;;;;;0.40;0.30;;;;;;;10.05;77.11;96485.84;5133610;27;20470;-53
2022/10/06 03:31:01;;;;;;;0.40;0.30;;;;;;;10.24;75.94;96488.31;5133658;27;20509;-53
2022/10/06 03:33:30;;;;;;;0.50;0.30;;;;;;;10.16;76.40;96498.25;5133324;27;20491;-53
2022/10/06 03:36:01;;;;;;;0.40;0.20;;;;;;;9.82;78.46;96498.34;5133234;27;20430;-53
2022/10/06 03:38:31;;;;;;;0.40;0.30;;;;;;;10.02;77.31;96480.19;5133450;27;20413;-53
2022/10/06 03:41:04;;;;;;;0.40;0.23;;;;;;;10.09;76.61;96491.47;5133419;27;20446;-53
2022/10/06 03:43:33;;;;;;;0.40;0.30;;;;;;;10.05;77.87;96496.44;5133369;27;20418;-53
2022/10/06 03:46:02;;;;;;;0.40;0.20;;;;;;;10.12;77.04;96497.13;5133628;27;20433;-53
2022/10/06 03:48:32;;;;;;;0.50;0.50;;;;;;;10.12;77.17;96491.00;5133552;27;20465;-53
2022/10/06 03:51:04;;;;;;;0.40;0.20;;;;;;;10.31;76.17;96502.22;5133542;27;20440;-53
2022/10/06 03:53:34;;;;;;;0.40;0.20;;;;;;;10.26;76.01;96502.94;5133326;27;20793;-53
2022/10/06 03:56:04;;;;;;;0.40;0.30;;;;;;;10.30;75.76;96503.25;5133429;27;20425;-53
2022/10/06 03:58:35;;;;;;;0.50;0.50;;;;;;;10.24;76.01;96486.47;5133157;27;20430;-53
2022/10/06 04:01:06;;;;;;;0.40;0.30;;;;;;;10.36;75.99;96491.69;5133323;27;20430;-53
2022/10/06 04:03:35;;;;;;;1.23;1.23;;;;;;;9.95;78.62;96498.88;5133112;27;20426;-53
2022/10/06 04:06:06;;;;;;;0.73;0.73;;;;;;;10.29;76.00;96499.00;5133022;27;20422;-53
2022/10/06 04:08:35;;;;;;;0.50;0.30;;;;;;;10.27;76.16;96495.78;5133255;27;20459;-52
2022/10/06 04:11:07;;;;;;;0.40;0.30;;;;;;;10.16;75.84;96490.31;5133319;27;20426;-52
2022/10/06 04:13:35;;;;;;;0.40;0.30;;;;;;;10.21;76.99;96497.53;5133017;27;20968;-52
2022/10/06 04:16:15;;;;;;;0.40;0.30;;;;;;;10.26;75.94;96494.19;5133206;27;20421;-52
2022/10/06 04:18:45;;;;;;;0.40;0.20;;;;;;;10.17;77.92;96494.56;5132784;27;20974;-52
2022/10/06 04:21:15;;;;;;;0.40;0.40;;;;;;;10.20;78.07;96488.78;5132709;27;20441;-53
2022/10/06 04:23:44;;;;;;;0.40;0.30;;;;;;;10.36;77.29;96487.22;5132567;27;20997;-52
2022/10/06 04:26:14;;;;;;;0.83;0.83;;;;;;;10.39;76.38;96486.75;5133022;27;20437;-52
2022/10/06 04:28:44;;;;;;;0.50;0.50;;;;;;;10.06;78.07;96491.94;5132977;27;20475;-52
2022/10/06 04:31:15;;;;;;;0.53;0.53;;;;;;;9.62;84.33;96492.66;5132543;27;20477;-52
2022/10/06 04:33:45;;;;;;;0.90;0.40;;;;;;;9.64;87.58;96486.09;5133027;27;20433;-52
2022/10/06 04:36:21;;;;;;;0.40;0.30;;;;;;;9.71;90.41;96491.25;5132564;27;20426;-52
2022/10/06 04:38:50;;;;;;;0.50;0.40;;;;;;;9.70;85.06;96490.44;5132544;27;20424;-52
2022/10/06 04:41:19;;;;;;;0.40;0.33;;;;;;;9.30;87.40;96418.19;5132614;27;20753;-53
2022/10/06 04:43:49;;;;;;;0.50;0.30;;;;;;;10.02;80.47;96454.50;5132560;27;20440;-52
2022/10/06 04:46:19;;;;;;;0.43;0.40;;;;;;;10.00;82.34;96488.38;5135347;27;20440;-52
2022/10/06 04:49:07;;;;;;;0.53;0.40;;;;;;;10.37;79.56;96488.03;5136393;27;20509;-52
2022/10/06 04:51:37;;;;;;;0.70;0.50;;;;;;;10.16;80.85;96479.72;5136368;27;20436;-52
2022/10/06 04:54:05;;;;;;;0.40;0.30;;;;;;;10.25;81.00;96492.56;5136942;27;20763;-52
2022/10/06 04:56:33;;;;;;;0.40;0.30;;;;;;;10.31;80.81;96488.97;5136786;27;20430;-54
2022/10/06 04:59:02;;;;;;;0.40;0.30;;;;;;;10.22;80.89;96493.84;5136685;27;20817;-51
2022/10/06 05:01:31;;;;;;;0.50;0.33;;;;;;;10.13;82.11;96488.13;5136548;27;20437;-52
2022/10/06 05:04:01;;;;;;;0.40;0.30;;;;;;;9.93;84.58;96495.66;5136705;27;20925;-52
2022/10/06 05:06:32;;;;;;;0.60;0.60;;;;;;;9.93;83.49;96493.03;5136656;27;20968;-52
2022/10/06 05:09:04;;;;;;;1.47;0.40;;;;;;;9.86;84.26;96497.66;5136416;27;20469;-52
2022/10/06 05:11:33;;;;;;;0.80;0.37;;;;;;;9.91;84.91;96495.13;5136534;27;20437;-52
2022/10/06 05:14:01;;;;;;;1.17;1.17;;;;;;;10.13;83.34;96488.13;5136113;27;20423;-52
2022/10/06 05:16:31;;;;;;;0.40;0.30;;;;;;;10.43;80.78;96493.16;5136194;27;20430;-52
2022/10/06 05:18:59;;;;;;;0.40;0.30;;;;;;;10.10;82.85;96491.22;5136216;27;20426;-52
2022/10/06 05:21:30;;;;;;;0.50;0.40;;;;;;;9.75;83.81;96495.84;5136124;27;20426;-52
2022/10/06 05:23:58;;;;;;;0.77;0.63;;;;;;;9.75;87.47;96501.13;5135766;27;20478;-52
2022/10/06 05:26:30;;;;;;;0.97;0.97;;;;;;;9.90;87.24;96498.78;5136129;27;20419;-52
2022/10/06 05:28:58;;;;;;;0.50;0.43;;;;;;;10.40;85.57;96493.63;5135862;27;20473;-53
2022/10/06 05:31:27;;;;;;;0.60;0.60;;;;;;;10.30;83.41;96492.66;5135858;27;20433;-52
2022/10/06 05:33:57;;;;;;;0.57;0.57;;;;;;;9.96;84.77;96510.28;5135872;27;20426;-52
2022/10/06 05:36:28;;;;;;;0.70;0.70;;;;;;;9.82;85.94;96472.69;5136069;27;20440;-52
2022/10/06 05:38:57;;;;;;;0.50;0.30;;;;;;;10.40;85.09;96472.44;5135768;27;20500;-52
2022/10/06 05:41:28;;;;;;;0.40;0.30;;;;;;;11.39;80.88;96495.44;5135717;27;20440;-52
2022/10/06 05:43:57;;;;;;;0.40;0.27;;;;;;;11.76;81.87;96493.03;5136129;27;20426;-52
2022/10/06 05:46:28;;;;;;;0.40;0.30;;;;;;;11.98;75.14;96487.69;5135583;27;20442;-51
2022/10/06 05:48:57;;;;;;;0.50;0.37;;;;;;;11.90;74.74;96493.44;5135892;27;20975;-52
2022/10/06 05:51:27;;;;;;;0.40;0.20;;;;;;;11.61;75.40;96489.34;5135571;27;20434;-52
2022/10/06 05:53:58;;;;;;;0.50;0.30;;;;;;;11.82;74.17;96488.56;5135489;27;20468;-52
2022/10/06 05:56:29;;;;;;;0.40;0.20;;;;;;;11.96;75.26;96490.59;5135001;27;20436;-52
2022/10/06 05:58:58;;;;;;;0.50;0.40;;;;;;;11.97;74.79;96478.09;5135480;27;20962;-51
2022/10/06 06:01:28;;;;;;;0.40;0.30;;;;;;;12.80;72.12;96482.09;5134935;27;21140;-52
2022/10/06 06:03:59;;;;;;;0.40;0.30;;;;;;;12.96;70.68;96478.47;5135314;27;20807;-53
2022/10/06 06:06:28;;;;;;;4.30;0.70;;;;;;;13.55;68.69;96471.13;5134438;27;20426;-53
2022/10/06 06:08:59;;;;;;;0.40;0.30;;;;;;;13.90;67.13;96468.59;5135455;27;20473;-53
2022/10/06 06:11:31;;;;;;;0.83;0.83;;;;;;;13.98;65.61;96404.13;5135464;27;20434;-53
2022/10/06 06:14:01;;;;;;;0.50;0.50;;;;;;;15.18;63.37;96466.59;5135411;27;20448;-53
2022/10/06 06:16:29;;;;;;;0.70;0.53;;;;;;;15.16;62.41;96474.09;5134985;27;20433;-54
2022/10/06 06:18:58;;;;;;;0.60;0.60;;;;;;;15.07;61.58;96479.19;5134939;27;20525;-53
2022/10/06 06:21:28;;;;;;;0.50;0.40;;;;;;;15.06;60.56;96480.25;5135278;27;20429;-54
2022/10/06 06:23:57;;;;;;;0.73;0.73;;;;;;;15.03;60.91;96485.31;5134486;27;20473;-55
2022/10/06 06:26:27;;;;;;;1.00;0.80;;;;;;;15.56;58.79;96481.25;5135056;27;20430;-55
2022/10/06 06:29:02;;;;;;;1.80;1.70;;;;;;;15.28;59.68;96486.06;5134976;27;20492;-55
2022/10/06 06:31:32;;;;;;;0.70;0.70;;;;;;;15.11;59.26;96448.19;5134801;27;20441;-56
2022/10/06 06:34:03;;;;;;;1.13;1.13;;;;;;;16.52;58.68;96487.75;5134966;27;20902;-56
2022/10/06 06:36:34;;;;;;;0.40;0.30;;;;;;;16.39;57.09;96439.41;5134720;27;20461;-57
2022/10/06 06:39:05;;;;;;;0.57;0.57;;;;;;;16.52;56.23;96490.44;5134552;27;20536;-57
2022/10/06 06:41:36;;;;;;;0.57;0.33;;;;;;;17.00;56.18;96477.25;5134895;27;20798;-57
2022/10/06 06:44:09;;;;;;;1.20;0.70;;;;;;;17.94;55.57;96473.03;5135248;27;20804;-57
2022/10/06 06:46:39;;;;;;;2.70;0.60;;;;;;;17.73;53.18;96483.22;5134832;27;20434;-56
2022/10/06 06:49:08;;;;;;;0.50;0.50;;;;;;;18.42;51.52;96477.22;5134255;27;20471;-56
2022/10/06 06:51:39;;;;;;;0.60;0.47;;;;;;;18.04;51.65;96481.75;5134657;27;20432;-56
2022/10/06 06:54:09;;;;;;;0.50;0.30;;;;;;;17.49;52.46;96477.81;5134021;27;20424;-55
2022/10/06 06:56:37;;;;;;;1.27;1.27;;;;;;;18.52;50.69;96460.22;5134108;27;20925;-55
2022/10/06 06:59:10;;;;;;;0.60;0.53;;;;;;;18.51;49.53;96459.41;5133460;27;20434;-55
2022/10/06 07:01:43;;;;;;;0.87;0.87;;;;;;;19.11;49.23;96463.00;5134482;27;20422;-55
2022/10/06 07:04:12;;;;;;;0.47;0.30;;;;;;;19.24;47.57;96456.88;5134363;27;20810;-55
2022/10/06 07:06:45;;;;;;;0.40;0.40;;;;;;;18.74;49.07;96458.53;5134424;27;20919;-55
2022/10/06 07:09:13;;;;;;;0.50;0.50;;;;;;;20.27;47.88;96458.91;5133055;27;20478;-56
2022/10/06 07:11:41;;;;;;;0.40;0.30;;;;;;;20.55;46.68;96453.41;5133926;27;20422;-56
2022/10/06 07:14:11;;;;;;;0.40;0.30;;;;;;;20.64;46.76;96454.31;5133826;27;20434;-55
2022/10/06 07:25:17;;;;;;;0.50;0.40;;;;;;;20.19;46.89;96446.09;5133656;27;20443;-56
2022/10/06 07:27:52;;;;;;;0.53;0.40;;;;;;;20.88;46.12;96441.31;5133869;27;20497;-55
2022/10/06 07:30:24;;;;;;;3.43;0.67;;;;;;;20.70;44.85;96412.66;5133560;27;20462;-55
2022/10/06 07:32:53;;;;;;;10.40;0.73;;;;;;;21.52;43.62;96440.75;5133573;27;20446;-54
2022/10/06 07:35:23;;;;;;;2.80;0.40;;;;;;;21.96;43.20;96430.94;5133668;27;20886;-54
2022/10/06 07:37:53;;;;;;;5.50;0.60;;;;;;;22.41;43.58;96432.28;5133668;27;20426;-54
2022/10/06 07:40:22;;;;;;;0.73;0.73;;;;;;;23.11;42.16;96420.31;5133709;27;20422;-54
2022/10/06 07:42:51;;;;;;;0.40;0.30;;;;;;;22.96;41.25;96427.03;5133415;27;20770;-54
2022/10/06 07:45:38;;;;;;;0.90;0.60;;;;;;;21.68;42.22;96432.25;5133425;27;20434;-52
2022/10/06 07:48:07;;;;;;;0.50;0.30;;;;;;;21.85;42.75;96433.13;5133217;27;20465;-52
2022/10/06 07:50:39;;;;;;;0.80;0.40;;;;;;;22.80;41.02;96411.59;5132589;27;20977;-52
2022/10/06 07:53:08;;;;;;;0.40;0.30;;;;;;;22.82;42.00;96418.28;5133472;27;20434;-52
2022/10/06 07:55:38;;;;;;;0.50;0.40;;;;;;;23.90;39.98;96405.06;5133533;27;20415;-53
2022/10/06 07:58:12;;;;;;;0.97;0.97;;;;;;;24.10;39.66;96402.72;5133028;27;20430;-52
2022/10/06 08:00:42;;;;;;;0.40;0.30;;;;;;;24.27;39.35;96399.88;5132981;27;20817;-52
2022/10/06 08:03:13;;;;;;;6.53;0.40;;;;;;;23.53;39.28;96403.16;5133297;27;20437;-53
2022/10/06 08:05:42;;;;;;;0.50;0.33;;;;;;;24.66;38.80;96399.44;5132731;27;20422;-52
2022/10/06 08:08:10;;;;;;;0.60;0.60;;;;;;;23.89;39.27;96400.75;5132883;27;20430;-53
2022/10/06 08:10:38;;;;;;;1.33;1.23;;;;;;;24.50;38.24;96388.41;5132563;27;20818;-52
2022/10/06 08:13:07;;;;;;;0.40;0.30;;;;;;;24.11;38.70;96396.19;5133055;27;20431;-52
2022/10/06 08:15:36;;;;;;;0.40;0.30;;;;;;;24.97;38.02;96388.16;5133237;27;20782;-52
2022/10/06 08:18:06;;;;;;;0.53;0.40;;;;;;;24.59;36.91;96385.63;5133005;27;20434;-52
2022/10/06 08:20:54;;;;;;;0.90;0.50;;;;;;;25.05;36.26;96388.06;5132761;27;20431;-52
2022/10/06 08:23:22;;;;;;;0.60;0.50;;;;;;;24.91;36.32;96382.16;5132675;27;20486;-52
2022/10/06 08:25:52;;;;;;;0.50;0.30;;;;;;;25.27;35.90;96371.34;5132912;27;20461;-53
2022/10/06 08:28:21;;;;;;;0.43;0.40;;;;;;;25.59;36.71;96377.88;5132746;27;20431;-52
2022/10/06 08:30:51;;;;;;;0.60;0.60;;;;;;;25.91;36.00;96373.44;5132739;27;20474;-52
2022/10/06 08:33:20;;;;;;;1.03;0.33;;;;;;;25.75;34.91;96364.41;5132742;27;20434;-54
2022/10/06 08:35:49;;;;;;;1.07;0.50;;;;;;;26.39;34.44;96356.25;5132813;27;20419;-53
2022/10/06 08:38:17;;;;;;;0.40;0.40;;;;;;;25.97;35.02;96349.56;5132620;27;20431;-53
2022/10/06 08:40:47;;;;;;;1.20;0.40;;;;;;;24.79;36.25;96348.78;5132872;27;20771;-53
2022/10/06 08:43:22;;;;;;;0.40;0.30;;;;;;;25.05;36.21;96238.84;5132963;27;20442;-53
2022/10/06 08:45:52;;;;;;;0.80;0.80;;;;;;;25.81;34.92;96330.44;5132940;27;20933;-53
2022/10/06 08:48:28;;;;;;;0.40;0.30;;;;;;;26.15;34.67;96334.59;5132600;27;20845;-52
2022/10/06 08:51:07;;;;;;;0.53;0.40;;;;;;;26.38;33.82;96324.78;5132706;27;20462;-52
2022/10/06 08:53:45;;;;;;;0.40;0.30;;;;;;;27.51;32.97;96320.44;5132196;27;20433;-52
2022/10/06 08:56:18;;;;;;;1.07;0.40;;;;;;;27.89;32.45;96310.78;5132169;27;20513;-53
2022/10/06 08:58:53;;;;;;;0.40;0.30;;;;;;;28.20;31.60;96308.78;5132745;27;20431;-52
2022/10/06 09:01:24;;;;;;;0.30;0.23;;;;;;;28.81;31.35;96303.38;5132347;27;20423;-52
2022/10/06 09:04:00;;;;;;;0.93;0.93;;;;;;;26.99;32.11;96312.47;5132323;27;20427;-52
2022/10/06 09:06:41;;;;;;;0.40;0.40;;;;;;;28.20;32.64;96302.53;5132293;27;20774;-52
2022/10/06 09:09:21;;;;;;;0.40;0.30;;;;;;;27.26;32.36;96302.66;5132352;27;20441;-52
2022/10/06 09:12:02;;;;;;;1.80;0.50;;;;;;;28.71;30.91;96292.28;5132350;27;20440;-53
2022/10/06 09:14:38;;;;;;;0.40;0.30;;;;;;;27.78;31.92;96287.97;5132369;27;20422;-53
2022/10/06 09:17:09;;;;;;;0.43;0.40;;;;;;;27.66;31.94;96292.38;5132241;27;20513;-52
2022/10/06 09:19:43;;;;;;;3.73;0.50;;;;;;;28.34;31.13;96286.44;5132363;27;20420;-53
2022/10/06 09:22:20;;;;;;;3.80;0.40;;;;;;;27.17;31.93;96280.28;5132305;27;20434;-53
2022/10/06 09:24:54;;;;;;;0.40;0.37;;;;;;;28.40;31.10;96271.38;5132118;27;20899;-52
2022/10/06 09:27:28;;;;;;;0.37;0.30;;;;;;;27.74;30.86;96211.59;5132525;27;20801;-52
2022/10/06 09:29:58;;;;;;;0.40;0.30;;;;;;;27.91;32.01;96273.03;5131865;27;20799;-51
2022/10/06 09:32:30;;;;;;;0.57;0.30;;;;;;;27.71;32.90;96273.03;5135040;27;20910;-51
2022/10/06 09:35:01;;;;;;;0.50;0.43;;;;;;;27.57;31.77;96275.44;5136187;27;20435;-52
2022/10/06 09:37:49;;;;;;;0.30;0.30;;;;;;;27.12;32.15;96268.88;5135792;27;20926;-51
2022/10/06 09:40:34;;;;;;;0.50;0.40;;;;;;;27.14;32.45;96266.59;5135672;27;20435;-52
2022/10/06 09:43:04;;;;;;;0.40;0.30;;;;;;;28.65;31.19;96264.50;5135650;27;20445;-52
2022/10/06 09:45:32;;;;;;;0.40;0.30;;;;;;;28.68;30.28;96262.97;5135968;27;20449;-52
2022/10/06 09:48:12;;;;;;;0.37;0.27;;;;;;;28.74;30.28;96259.56;5135718;27;20504;-52
2022/10/06 09:50:42;;;;;;;0.30;0.30;;;;;;;29.23;29.97;96245.22;5135586;27;20504;-53
2022/10/06 09:53:14;;;;;;;0.30;0.30;;;;;;;29.81;29.84;96251.97;5135739;27;20439;-54
2022/10/06 09:55:52;;;;;;;0.40;0.30;;;;;;;30.65;29.23;96243.22;5135522;27;20907;-53
2022/10/06 09:58:33;;;;;;;0.40;0.33;;;;;;;28.91;30.33;96233.75;5135417;27;20753;-53
2022/10/06 10:01:04;;;;;;;0.70;0.70;;;;;;;28.56;30.29;96230.38;5135048;27;20430;-53
2022/10/06 10:03:45;;;;;;;0.40;0.30;;;;;;;29.47;28.85;96229.19;5135359;27;20428;-53
2022/10/06 10:06:35;;;;;;;0.50;0.40;;;;;;;31.01;27.72;96234.22;5135181;27;20430;-52
2022/10/06 10:09:26;;;;;;;0.40;0.40;;;;;;;31.00;28.67;96226.38;5135586;27;20426;-53
2022/10/06 10:14:48;;;;;;;0.47;0.40;;;;;;;29.95;29.62;96218.56;5135148;27;20438;-53
2022/10/06 10:17:19;;;;;;;0.73;0.70;;;;;;;29.00;30.83;96214.38;5135106;27;20431;-53
2022/10/06 10:19:55;;;;;;;0.60;0.40;;;;;;;29.88;30.12;96210.28;5135427;27;20502;-53
2022/10/06 10:22:34;;;;;;;0.40;0.37;;;;;;;29.30;30.10;96209.81;5134951;27;20426;-53
2022/10/06 10:25:13;;;;;;;0.40;0.30;;;;;;;30.43;28.88;96192.19;5134911;27;20442;-53
2022/10/06 10:27:54;;;;;;;0.30;0.20;;;;;;;32.32;27.21;96186.44;5135189;27;20430;-53
2022/10/06 10:30:22;;;;;;;0.30;0.20;;;;;;;33.32;26.47;96185.38;5134784;27;21029;-52
2022/10/06 10:33:01;;;;;;;0.40;0.30;;;;;;;32.84;25.73;96175.97;5134976;27;20828;-52
2022/10/06 10:35:32;;;;;;;0.30;0.20;;;;;;;30.92;27.20;96184.44;5135046;27;20852;-52
2022/10/06 10:38:07;;;;;;;0.50;0.40;;;;;;;29.29;28.51;96058.06;5134640;27;20438;-53
2022/10/06 10:40:47;;;;;;;0.40;0.30;;;;;;;30.02;28.37;96172.19;5134564;27;20425;-52
2022/10/06 10:43:28;;;;;;;0.90;0.53;;;;;;;30.13;27.40;96165.66;5134721;27;20425;-52
2022/10/06 10:46:03;;;;;;;0.90;0.77;;;;;;;31.20;26.89;96162.75;5134776;27;20434;-52
2022/10/06 10:48:38;;;;;;;0.40;0.40;;;;;;;30.63;26.38;96163.47;5134746;27;20902;-52
2022/10/06 10:51:09;;;;;;;0.50;0.40;;;;;;;30.74;27.43;96158.84;5134210;27;21015;-52
2022/10/06 10:53:47;;;;;;;0.50;0.43;;;;;;;31.32;26.61;96146.00;5134267;27;20422;-52
2022/10/06 10:56:18;;;;;;;0.30;0.20;;;;;;;31.36;27.03;96088.50;5134274;27;20430;-51
2022/10/06 10:58:52;;;;;;;0.47;0.47;;;;;;;31.65;27.98;96136.03;5134304;27;20441;-52
2022/10/06 11:01:29;;;;;;;0.73;0.50;;;;;;;30.23;26.83;96119.66;5134070;27;20427;-52
2022/10/06 11:03:59;;;;;;;0.43;0.30;;;;;;;30.90;26.54;96129.28;5134076;27;20460;-51
2022/10/06 11:06:43;;;;;;;0.30;0.30;;;;;;;31.46;24.55;96122.63;5134303;27;20423;-51
2022/10/06 11:09:18;;;;;;;0.70;0.50;;;;;;;32.18;24.51;96120.56;5133855;27;20431;-51
2022/10/06 11:12:02;;;;;;;0.30;0.20;;;;;;;32.71;23.95;96104.19;5134271;27;20818;-51
2022/10/06 11:14:45;;;;;;;0.40;0.27;;;;;;;32.22;24.47;96041.81;5133771;27;20438;-51
2022/10/06 11:17:23;;;;;;;0.30;0.20;;;;;;;32.51;24.64;96106.53;5133898;27;20433;-51
2022/10/06 11:19:57;;;;;;;0.40;0.40;;;;;;;32.70;24.99;96108.09;5134173;27;20958;-51
2022/10/06 11:22:37;;;;;;;0.40;0.30;;;;;;;32.22;24.30;96104.09;5133779;27;20441;-51
2022/10/06 11:25:20;;;;;;;0.63;0.63;;;;;;;32.37;24.47;96101.00;5133778;27;20770;-51
2022/10/06 11:27:58;;;;;;;0.50;0.30;;;;;;;32.33;24.85;96099.44;5133526;27;20410;-51
2022/10/06 11:30:29;;;;;;;0.40;0.40;;;;;;;32.87;25.08;96096.31;5133836;27;20435;-52
2022/10/06 11:33:07;;;;;;;0.40;0.30;;;;;;;32.64;24.44;96088.50;5133403;27;20832;-52
2022/10/06 11:35:38;;;;;;;0.60;0.50;;;;;;;32.53;24.57;96068.50;5133600;27;20422;-51
2022/10/06 11:38:16;;;;;;;0.37;0.30;;;;;;;31.97;24.61;96038.22;5133329;27;20434;-52
2022/10/06 11:41:06;;;;;;;0.30;0.30;;;;;;;31.61;25.16;96042.03;5133684;27;20461;-52
2022/10/06 11:43:46;;;;;;;0.30;0.30;;;;;;;31.31;25.37;96062.25;5133339;27;20452;-52
2022/10/06 11:46:31;;;;;;;0.30;0.30;;;;;;;31.75;25.53;96055.81;5133537;27;20426;-52
2022/10/06 11:49:35;;;;;;;5.50;0.60;;;;;;;32.91;25.24;96055.13;5133480;27;20859;-52
2022/10/06 11:52:37;;;;;;;0.30;0.30;;;;;;;31.76;24.72;96049.91;5130303;27;20529;-52
2022/10/06 11:55:16;;;;;;;0.40;0.30;;;;;;;32.21;24.65;96047.66;5132987;27;20436;-52
2022/10/06 11:58:12;;;;;;;0.30;0.20;;;;;;;31.70;23.97;96042.47;5133527;27;20422;-51
2022/10/06 12:01:02;;;;;;;0.30;0.30;;;;;;;32.20;24.48;96038.66;5132889;27;20459;-52
2022/10/06 12:03:52;;;;;;;0.50;0.40;;;;;;;31.84;27.78;96032.31;5133070;27;20419;-50
2022/10/06 12:07:01;;;;;;;0.40;0.30;;;;;;;31.03;25.68;96033.94;5133126;27;20551;-50
2022/10/06 12:10:26;;;;;;;0.30;0.30;;;;;;;30.60;25.71;96038.31;5133019;27;20426;-50